Time;durP1;ratioP1;P1;durP2;ratioP2;P2;SDS_P1;SDS_P2;PMS_P1;PMS_P2;Temp;Humidity;BMP_temperature;BMP_pressure;BME280_temperature;BME280_humidity;BME280_pressure;Samples;Min_cycle;Max_cycle;Signal;HPM_P1;HPM_P2
2021/04/12 00:00:48;;;;;;;0.40;0.40;;;6.30;99.90;;;;;;4457038;27;20113;-75
2021/04/12 00:03:22;;;;;;;0.30;0.30;;;6.20;99.90;;;;;;4444658;32;20414;-73
2021/04/12 00:06:11;;;;;;;0.88;0.45;;;6.20;99.90;;;;;;4444661;32;20421;-74
2021/04/12 00:08:57;;;;;;;0.30;0.30;;;6.10;99.90;;;;;;4444819;32;20411;-74
2021/04/12 00:11:50;;;;;;;0.60;0.60;;;5.80;99.90;;;;;;4445650;32;20430;-74
2021/04/12 00:14:24;;;;;;;0.40;0.40;;;5.90;99.90;;;;;;4444814;32;20062;-74
2021/04/12 00:17:06;;;;;;;0.43;0.43;;;5.90;99.90;;;;;;4444402;32;20073;-75
2021/04/12 00:19:42;;;;;;;0.30;0.30;;;5.90;99.90;;;;;;4444211;32;20068;-75
2021/04/12 00:22:16;;;;;;;0.50;0.50;;;5.90;99.90;;;;;;4444823;32;20085;-76
2021/04/12 00:24:50;;;;;;;0.30;0.30;;;5.90;99.90;;;;;;4444955;32;20053;-75
2021/04/12 00:27:24;;;;;;;0.30;0.30;;;5.80;99.90;;;;;;4444643;32;20084;-75
2021/04/12 00:29:56;;;;;;;0.80;0.70;;;5.70;99.90;;;;;;4444574;32;20161;-76
2021/04/12 00:32:29;;;;;;;0.30;0.30;;;5.80;99.90;;;;;;4446216;32;20621;-75
2021/04/12 00:35:05;;;;;;;0.43;0.43;;;5.80;99.90;;;;;;4444116;32;20108;-76
2021/04/12 00:37:54;;;;;;;0.30;0.30;;;5.90;99.90;;;;;;4444342;32;20282;-75
2021/04/12 00:40:45;;;;;;;0.30;0.30;;;5.90;99.90;;;;;;4433218;32;20115;-75
2021/04/12 00:43:26;;;;;;;0.65;0.65;;;5.80;99.90;;;;;;4433758;32;20511;-75
2021/04/12 00:46:07;;;;;;;0.30;0.30;;;5.70;99.90;;;;;;4444876;32;20085;-76
2021/04/12 00:49:03;;;;;;;0.30;0.30;;;5.60;99.90;;;;;;4444576;32;20065;-75
2021/04/12 00:52:08;;;;;;;0.40;0.40;;;5.70;99.90;;;;;;4433672;32;20523;-76
2021/04/12 00:55:03;;;;;;;0.40;0.40;;;5.70;99.90;;;;;;4411842;32;20129;-76
2021/04/12 00:58:05;;;;;;;0.30;0.30;;;5.60;99.90;;;;;;4417255;32;20490;-75
2021/04/12 01:00:35;;;;;;;0.37;0.37;;;5.60;99.90;;;;;;4418998;32;20069;-75
2021/04/12 01:03:36;;;;;;;0.30;0.30;;;5.70;99.90;;;;;;4428990;32;20404;-76
2021/04/12 01:06:22;;;;;;;;;;;5.70;99.90;;;;;;4417565;32;20517;-75
2021/04/12 01:09:12;;;;;;;0.37;0.37;;;5.70;99.90;;;;;;4417655;32;20314;-76
2021/04/12 01:12:15;;;;;;;0.45;0.45;;;5.60;99.90;;;;;;4417662;32;20490;-76
2021/04/12 01:14:50;;;;;;;0.30;0.30;;;5.50;99.90;;;;;;4420089;32;20136;-76
2021/04/12 01:17:47;;;;;;;2.12;0.60;;;5.50;99.90;;;;;;4428741;32;20136;-75
2021/04/12 01:20:27;;;;;;;0.30;0.30;;;5.40;99.90;;;;;;4417264;32;20049;-75
2021/04/12 01:23:19;;;;;;;0.40;0.40;;;5.50;99.90;;;;;;4428884;32;20547;-75
2021/04/12 01:26:24;;;;;;;0.30;0.30;;;5.60;99.90;;;;;;4429737;32;20089;-76
2021/04/12 01:29:30;;;;;;;0.30;0.30;;;5.50;99.90;;;;;;4410035;32;20065;-75
2021/04/12 01:32:24;;;;;;;0.43;0.43;;;5.20;99.90;;;;;;4409238;32;20078;-75
2021/04/12 01:35:29;;;;;;;0.30;0.30;;;5.20;99.90;;;;;;4418922;32;20061;-75
2021/04/12 01:38:27;;;;;;;0.43;0.43;;;5.10;99.90;;;;;;4408152;32;20135;-75
2021/04/12 01:41:14;;;;;;;0.52;0.52;;;5.00;99.90;;;;;;4418360;32;20091;-75
2021/04/12 01:43:58;;;;;;;0.30;0.30;;;5.00;99.90;;;;;;4416613;32;20514;-76
2021/04/12 01:46:37;;;;;;;0.40;0.40;;;5.10;99.90;;;;;;4428740;32;20525;-75
2021/04/12 01:49:12;;;;;;;0.32;0.32;;;5.10;99.90;;;;;;4429887;32;20895;-76
2021/04/12 01:51:46;;;;;;;0.30;0.30;;;5.00;99.90;;;;;;4429516;32;20086;-75
2021/04/12 01:54:52;;;;;;;0.57;0.43;;;5.10;99.90;;;;;;4427370;32;20057;-76
2021/04/12 01:57:44;;;;;;;0.40;0.40;;;5.10;99.90;;;;;;4408136;32;20130;-75
2021/04/12 02:00:50;;;;;;;0.40;0.40;;;5.20;99.90;;;;;;4416851;32;20082;-76
2021/04/12 02:03:27;;;;;;;0.40;0.40;;;5.20;99.90;;;;;;4408294;32;20070;-76
2021/04/12 02:06:03;;;;;;;0.40;0.40;;;5.20;99.90;;;;;;4429306;32;20082;-75
2021/04/12 02:09:05;;;;;;;0.43;0.43;;;5.20;99.90;;;;;;4431466;32;20462;-75
2021/04/12 02:11:36;;;;;;;0.47;0.47;;;5.30;99.90;;;;;;4421958;32;20073;-76
2021/04/12 02:14:33;;;;;;;0.32;0.32;;;5.30;99.90;;;;;;4431268;32;20155;-76
2021/04/12 02:17:12;;;;;;;0.35;0.35;;;5.30;99.90;;;;;;4421246;32;20070;-76
2021/04/12 02:19:46;;;;;;;0.40;0.40;;;5.10;99.90;;;;;;4432031;32;20068;-76
2021/04/12 02:22:39;;;;;;;0.40;0.40;;;5.00;99.90;;;;;;4431648;32;20066;-75
2021/04/12 02:25:25;;;;;;;0.47;0.47;;;5.00;99.90;;;;;;4421635;32;20073;-76
2021/04/12 02:28:15;;;;;;;0.40;0.40;;;5.10;99.90;;;;;;4420100;32;20074;-76
2021/04/12 02:31:21;;;;;;;0.40;0.40;;;5.10;99.90;;;;;;4418959;32;20104;-76
2021/04/12 02:34:14;;;;;;;0.40;0.40;;;5.10;99.90;;;;;;4421415;32;20081;-75
2021/04/12 02:37:06;;;;;;;0.40;0.40;;;5.20;99.90;;;;;;4419271;32;20533;-76
2021/04/12 02:39:50;;;;;;;16.58;0.73;;;5.10;99.90;;;;;;4419665;32;20621;-75
2021/04/12 02:42:42;;;;;;;0.30;0.30;;;5.10;99.90;;;;;;4430169;32;20057;-76
2021/04/12 02:45:37;;;;;;;0.40;0.40;;;5.10;99.90;;;;;;4420284;32;20061;-76
2021/04/12 02:48:29;;;;;;;0.32;0.32;;;5.20;99.90;;;;;;4419226;32;20120;-76
2021/04/12 02:51:18;;;;;;;0.40;0.40;;;5.20;99.90;;;;;;4420535;32;20169;-76
2021/04/12 02:54:09;;;;;;;0.32;0.32;;;5.20;99.90;;;;;;4430465;32;20077;-76
2021/04/12 02:56:55;;;;;;;0.32;0.32;;;5.20;99.90;;;;;;4420427;32;20077;-76
2021/04/12 02:59:26;;;;;;;0.30;0.30;;;5.20;99.90;;;;;;4418985;32;20073;-76
2021/04/12 03:02:10;;;;;;;0.50;0.50;;;5.20;99.90;;;;;;4430226;32;20518;-76
2021/04/12 03:04:57;;;;;;;0.80;0.80;;;5.20;99.90;;;;;;4429389;32;20076;-75
2021/04/12 03:07:51;;;;;;;0.40;0.40;;;5.20;99.90;;;;;;4418465;32;20062;-75
2021/04/12 03:10:29;;;;;;;0.40;0.40;;;5.20;99.90;;;;;;4420286;32;20168;-76
2021/04/12 03:13:16;;;;;;;0.40;0.40;;;5.30;99.90;;;;;;4430297;32;20069;-76
2021/04/12 03:15:58;;;;;;;2.20;0.60;;;5.20;99.90;;;;;;4418829;32;20085;-76
2021/04/12 03:18:36;;;;;;;0.50;0.50;;;5.20;99.90;;;;;;4429453;32;20490;-75
2021/04/12 03:21:42;;;;;;;0.30;0.30;;;5.10;99.90;;;;;;4430005;32;20061;-76
2021/04/12 03:24:30;;;;;;;0.35;0.35;;;5.20;99.90;;;;;;4409655;32;20623;-75
2021/04/12 03:27:10;;;;;;;0.30;0.30;;;5.20;99.90;;;;;;4431069;32;20506;-76
2021/04/12 03:30:16;;;;;;;0.52;0.52;;;5.20;99.90;;;;;;4429823;32;20124;-76
2021/04/12 03:32:56;;;;;;;0.40;0.40;;;5.10;99.90;;;;;;4410181;32;20082;-76
2021/04/12 03:36:02;;;;;;;0.62;0.62;;;5.10;99.90;;;;;;4429407;32;20553;-76
2021/04/12 03:38:36;;;;;;;1.15;0.90;;;5.20;99.90;;;;;;4410249;32;20065;-75
2021/04/12 03:41:36;;;;;;;0.20;0.20;;;5.10;99.90;;;;;;4429268;32;20062;-74
2021/04/12 03:44:16;;;;;;;0.40;0.40;;;5.30;99.90;;;;;;4419799;32;20117;-75
2021/04/12 03:47:08;;;;;;;0.40;0.40;;;5.30;99.90;;;;;;4429511;32;20050;-76
2021/04/12 03:49:46;;;;;;;0.22;0.22;;;5.30;99.90;;;;;;4430910;32;20096;-76
2021/04/12 03:52:40;;;;;;;0.40;0.40;;;5.40;99.90;;;;;;4429782;32;20098;-75
2021/04/12 03:55:19;;;;;;;0.50;0.50;;;5.40;99.90;;;;;;4417722;32;20114;-76
2021/04/12 03:58:06;;;;;;;0.55;0.50;;;5.40;99.90;;;;;;4430615;32;20053;-76
2021/04/12 04:00:41;;;;;;;0.32;0.32;;;5.40;99.90;;;;;;4419277;32;20522;-76
2021/04/12 04:03:46;;;;;;;0.70;0.57;;;5.30;99.90;;;;;;4429934;32;20454;-76
2021/04/12 04:06:21;;;;;;;0.40;0.40;;;5.40;99.90;;;;;;4409175;32;20150;-76
2021/04/12 04:09:08;;;;;;;0.50;0.50;;;5.40;99.90;;;;;;4429128;32;20077;-76
2021/04/12 04:12:14;;;;;;;0.37;0.37;;;5.40;99.90;;;;;;4418064;32;20502;-76
2021/04/12 04:15:19;;;;;;;0.88;0.88;;;5.30;99.90;;;;;;4409039;32;20065;-75
2021/04/12 04:18:12;;;;;;;0.40;0.40;;;5.30;99.90;;;;;;4409016;32;20065;-78
2021/04/12 04:20:55;;;;;;;0.30;0.30;;;5.30;99.90;;;;;;4428092;32;20077;-75
2021/04/12 04:23:39;;;;;;;1.15;0.77;;;5.30;99.90;;;;;;4418613;32;20061;-76
2021/04/12 04:26:18;;;;;;;0.30;0.30;;;5.40;99.90;;;;;;4425733;32;20144;-76
2021/04/12 04:29:23;;;;;;;1.12;0.45;;;5.30;99.90;;;;;;4429192;32;20517;-76
2021/04/12 04:32:15;;;;;;;0.30;0.30;;;5.30;99.90;;;;;;4418325;32;20074;-76
2021/04/12 04:35:12;;;;;;;0.30;0.30;;;5.30;99.90;;;;;;4428814;32;20073;-76
2021/04/12 04:38:16;;;;;;;0.35;0.35;;;5.30;99.90;;;;;;4417483;32;20146;-76
2021/04/12 04:40:56;;;;;;;0.30;0.30;;;5.40;99.90;;;;;;4418366;32;20073;-75
2021/04/12 04:43:31;;;;;;;0.57;0.57;;;5.20;99.90;;;;;;4429505;32;20148;-75
2021/04/12 04:45:59;;;;;;;0.30;0.30;;;5.30;99.90;;;;;;4428870;32;20164;-75
2021/04/12 04:48:50;;;;;;;0.30;0.30;;;5.30;99.90;;;;;;4429200;32;20454;-76
2021/04/12 04:51:55;;;;;;;0.30;0.30;;;5.30;99.90;;;;;;4417565;32;20065;-75
2021/04/12 04:54:42;;;;;;;0.40;0.40;;;5.30;99.90;;;;;;4408650;32;20073;-76
2021/04/12 04:57:24;;;;;;;0.50;0.50;;;5.40;99.90;;;;;;4417673;32;20069;-76
2021/04/12 05:00:30;;;;;;;0.40;0.40;;;5.30;99.90;;;;;;4428853;32;20057;-76
2021/04/12 05:03:02;;;;;;;0.40;0.40;;;5.30;99.90;;;;;;4398868;32;20427;-75
2021/04/12 05:05:57;;;;;;;0.30;0.30;;;5.40;99.90;;;;;;4420870;32;20444;-76
2021/04/12 05:09:02;;;;;;;0.30;0.30;;;5.40;99.90;;;;;;4415464;32;20089;-76
2021/04/12 05:11:35;;;;;;;0.40;0.40;;;5.40;99.90;;;;;;4403530;32;20069;-75
2021/04/12 05:14:24;;;;;;;0.50;0.50;;;5.50;99.90;;;;;;4427758;32;20081;-76
2021/04/12 05:17:11;;;;;;;0.40;0.40;;;5.40;99.90;;;;;;4410253;32;20069;-76
2021/04/12 05:19:55;;;;;;;0.37;0.37;;;5.40;99.90;;;;;;4404839;32;20518;-75
2021/04/12 05:22:36;;;;;;;0.70;0.57;;;5.40;99.90;;;;;;4424727;32;20113;-75
2021/04/12 05:25:41;;;;;;;0.30;0.30;;;5.50;99.90;;;;;;4429195;32;20073;-75
2021/04/12 05:28:23;;;;;;;3.28;1.17;;;5.50;99.90;;;;;;4389691;32;20120;-76
2021/04/12 05:31:29;;;;;;;0.57;0.57;;;5.40;99.90;;;;;;4410121;32;20588;-76
2021/04/12 05:34:16;;;;;;;1.48;0.50;;;5.40;99.90;;;;;;4382435;32;20915;-75
2021/04/12 05:37:06;;;;;;;0.28;0.28;;;5.50;99.90;;;;;;4408738;32;20085;-75
2021/04/12 05:39:53;;;;;;;0.30;0.30;;;5.60;99.90;;;;;;4412772;32;20090;-76
2021/04/12 05:42:52;;;;;;;0.32;0.32;;;5.60;99.90;;;;;;4410615;32;20076;-76
2021/04/12 05:45:40;;;;;;;0.40;0.40;;;5.60;99.90;;;;;;4411745;32;20078;-77
2021/04/12 05:48:27;;;;;;;0.40;0.40;;;5.60;99.90;;;;;;4415108;32;20093;-77
2021/04/12 05:51:00;;;;;;;0.35;0.35;;;5.60;99.90;;;;;;4424829;32;20136;-76
2021/04/12 05:53:56;;;;;;;0.22;0.22;;;5.60;99.90;;;;;;4427758;32;20085;-76
2021/04/12 05:56:38;;;;;;;0.30;0.30;;;5.70;99.90;;;;;;4409408;32;20069;-76
2021/04/12 05:59:43;;;;;;;0.25;0.25;;;5.80;99.90;;;;;;4422763;32;20053;-76
2021/04/12 06:02:48;;;;;;;0.40;0.40;;;5.60;99.90;;;;;;4402103;32;20136;-76
2021/04/12 06:05:31;;;;;;;0.40;0.40;;;5.70;99.90;;;;;;4402565;32;20081;-76
2021/04/12 06:08:37;;;;;;;1.85;0.77;;;5.80;99.90;;;;;;4419505;32;20132;-76
2021/04/12 06:11:16;;;;;;;0.30;0.30;;;5.80;99.90;;;;;;4404928;32;20077;-76
2021/04/12 06:14:21;;;;;;;0.40;0.40;;;5.80;99.90;;;;;;4427984;32;20144;-76
2021/04/12 06:17:14;;;;;;;0.30;0.30;;;5.70;99.90;;;;;;4406533;32;20065;-76
2021/04/12 06:20:08;;;;;;;0.50;0.50;;;5.70;99.90;;;;;;4413571;32;20430;-76
2021/04/12 06:22:47;;;;;;;0.37;0.37;;;5.80;99.90;;;;;;4412562;32;20386;-76
2021/04/12 06:25:30;;;;;;;0.40;0.40;;;5.90;99.90;;;;;;4412003;32;20073;-76
2021/04/12 06:28:36;;;;;;;0.50;0.50;;;5.90;99.90;;;;;;4424509;32;20154;-77
2021/04/12 06:31:38;;;;;;;0.40;0.40;;;5.90;99.90;;;;;;4395387;32;20473;-76
2021/04/12 06:34:43;;;;;;;0.30;0.30;;;5.70;99.90;;;;;;4414036;32;20176;-76
2021/04/12 06:37:33;;;;;;;0.30;0.30;;;5.80;99.90;;;;;;4418651;32;20443;-76
2021/04/12 06:40:39;;;;;;;0.30;0.30;;;5.80;99.90;;;;;;4416926;32;20086;-76
2021/04/12 06:43:44;;;;;;;0.30;0.30;;;5.90;99.90;;;;;;4404419;32;20068;-76
2021/04/12 06:46:13;;;;;;;0.40;0.40;;;5.80;99.90;;;;;;4407991;32;20085;-75
2021/04/12 06:49:15;;;;;;;0.40;0.40;;;5.80;99.90;;;;;;4426736;32;20078;-77
2021/04/12 06:52:20;;;;;;;0.30;0.30;;;5.80;99.90;;;;;;4395570;32;20612;-76
2021/04/12 06:55:26;;;;;;;0.70;0.60;;;5.90;99.90;;;;;;4414696;32;20093;-76
2021/04/12 06:58:29;;;;;;;0.30;0.30;;;6.00;99.90;;;;;;4403408;32;20081;-76
2021/04/12 07:01:27;;;;;;;0.30;0.30;;;6.20;99.90;;;;;;4406893;32;20121;-76
2021/04/12 07:03:55;;;;;;;0.30;0.30;;;6.20;99.90;;;;;;4416801;32;20069;-76
2021/04/12 07:06:44;;;;;;;0.30;0.30;;;6.30;99.90;;;;;;4424391;32;20508;-76
2021/04/12 07:09:38;;;;;;;0.28;0.28;;;6.30;99.90;;;;;;4427210;32;20077;-75
2021/04/12 07:12:43;;;;;;;0.57;0.57;;;6.30;99.90;;;;;;4411351;32;20089;-78
2021/04/12 07:15:49;;;;;;;0.37;0.37;;;6.20;99.90;;;;;;4402035;32;20510;-75
2021/04/12 07:18:40;;;;;;;0.35;0.35;;;6.30;99.90;;;;;;4402736;32;20086;-75
2021/04/12 07:21:37;;;;;;;0.40;0.40;;;6.30;99.90;;;;;;4406796;32;20069;-74
2021/04/12 07:24:12;;;;;;;0.30;0.30;;;6.30;99.90;;;;;;4400220;32;20164;-76
2021/04/12 07:26:53;;;;;;;0.68;0.68;;;6.40;99.90;;;;;;4421565;32;20603;-76
2021/04/12 07:29:55;;;;;;;1.12;0.95;;;6.30;99.90;;;;;;4421853;32;20604;-76
2021/04/12 07:33:03;;;;;;;2.60;0.73;;;6.20;99.90;;;;;;4404223;32;20081;-75
2021/04/12 07:35:50;;;;;;;0.22;0.22;;;6.30;99.90;;;;;;4394735;32;20397;-78
2021/04/12 07:38:55;;;;;;;0.30;0.30;;;6.40;99.90;;;;;;4414154;32;20069;-77
2021/04/12 07:41:54;;;;;;;1.95;0.52;;;6.40;99.90;;;;;;4400935;32;20085;-78
2021/04/12 07:44:49;;;;;;;0.40;0.40;;;6.50;99.90;;;;;;4419135;32;20081;-76
2021/04/12 07:47:53;;;;;;;0.85;0.85;;;6.60;99.90;;;;;;4414105;32;20073;-76
2021/04/12 07:50:55;;;;;;;0.40;0.40;;;6.60;99.90;;;;;;4407357;32;20072;-75
2021/04/12 07:53:51;;;;;;;0.30;0.30;;;6.70;99.90;;;;;;4409100;32;20087;-73
2021/04/12 07:56:41;;;;;;;0.30;0.30;;;6.50;99.90;;;;;;4422855;32;20094;-74
2021/04/12 07:59:27;;;;;;;0.30;0.30;;;6.60;99.90;;;;;;4416446;32;20136;-76
2021/04/12 08:02:25;;;;;;;0.40;0.40;;;6.90;99.90;;;;;;4414808;32;20068;-75
2021/04/12 08:05:30;;;;;;;0.32;0.32;;;7.10;99.90;;;;;;4414677;32;20503;-75
2021/04/12 08:08:19;;;;;;;0.40;0.40;;;7.00;99.90;;;;;;4415729;32;20542;-75
2021/04/12 08:11:24;;;;;;;0.30;0.30;;;7.20;99.90;;;;;;4423195;32;20099;-75
2021/04/12 08:14:21;;;;;;;5.82;0.68;;;7.20;99.90;;;;;;4420863;32;20068;-75
2021/04/12 08:17:17;;;;;;;0.37;0.37;;;7.00;99.90;;;;;;4414499;32;20078;-76
2021/04/12 08:20:19;;;;;;;0.30;0.30;;;6.80;99.90;;;;;;4411596;32;20073;-75
2021/04/12 08:23:24;;;;;;;0.30;0.30;;;6.90;99.90;;;;;;4407606;32;20499;-76
2021/04/12 08:26:26;;;;;;;0.30;0.30;;;7.10;99.90;;;;;;4415346;32;20077;-77
2021/04/12 08:29:05;;;;;;;0.57;0.57;;;7.00;99.90;;;;;;4416375;32;20089;-77
2021/04/12 08:32:10;;;;;;;0.40;0.40;;;7.10;99.90;;;;;;4424538;32;20467;-77
2021/04/12 08:35:16;;;;;;;0.30;0.30;;;7.10;99.90;;;;;;4406397;32;20486;-77
2021/04/12 08:38:21;;;;;;;0.40;0.40;;;7.30;99.90;;;;;;4408951;32;20077;-78
2021/04/12 08:41:31;;;;;;;0.40;0.40;;;6.90;99.90;;;;;;4404027;32;20216;-77
2021/04/12 08:44:30;;;;;;;1.73;1.42;;;7.00;99.90;;;;;;4401718;32;20068;-77
2021/04/12 08:47:12;;;;;;;0.40;0.40;;;7.30;99.90;;;;;;4410301;32;20085;-76
2021/04/12 08:50:01;;;;;;;0.75;0.50;;;7.30;99.90;;;;;;4424024;32;20128;-77
2021/04/12 08:53:06;;;;;;;0.35;0.35;;;7.40;99.90;;;;;;4408648;32;20652;-77
2021/04/12 08:56:12;;;;;;;0.40;0.40;;;7.40;99.90;;;;;;4401044;32;20098;-77
2021/04/12 08:59:17;;;;;;;0.40;0.40;;;7.60;99.90;;;;;;4398976;32;20105;-77
2021/04/12 09:02:19;;;;;;;0.30;0.30;;;7.80;99.90;;;;;;4402997;32;20074;-77
2021/04/12 09:05:06;;;;;;;0.50;0.50;;;8.10;99.90;;;;;;4396114;32;20081;-76
2021/04/12 09:07:45;;;;;;;5.32;2.35;;;8.10;99.90;;;;;;4423366;32;20076;-77
2021/04/12 09:10:28;;;;;;;0.30;0.30;;;8.20;99.90;;;;;;4426424;32;20120;-77
2021/04/12 09:13:16;;;;;;;0.37;0.37;;;8.20;99.90;;;;;;4422757;32;20072;-76
2021/04/12 09:16:04;;;;;;;0.50;0.50;;;8.30;99.90;;;;;;4410515;32;20073;-76
2021/04/12 09:18:58;;;;;;;0.57;0.57;;;8.10;99.90;;;;;;4407861;32;20090;-77
2021/04/12 09:22:03;;;;;;;3.05;1.10;;;8.00;99.90;;;;;;4410482;32;20702;-75
2021/04/12 09:24:59;;;;;;;0.57;0.57;;;7.90;99.90;;;;;;4407469;32;20082;-76
2021/04/12 09:27:47;;;;;;;0.65;0.65;;;7.70;99.90;;;;;;4422435;32;20070;-76
2021/04/12 09:30:46;;;;;;;0.30;0.30;;;7.70;99.90;;;;;;4409540;32;20082;-74
2021/04/12 09:33:36;;;;;;;0.30;0.30;;;7.60;99.90;;;;;;4418435;32;20107;-74
2021/04/12 09:36:38;;;;;;;0.30;0.30;;;7.60;99.90;;;;;;4411941;32;20446;-74
2021/04/12 09:39:45;;;;;;;0.30;0.30;;;7.80;99.90;;;;;;4404164;32;98139;-75
2021/04/12 09:42:49;;;;;;;0.30;0.30;;;7.80;99.90;;;;;;4405564;32;20662;-74
2021/04/12 09:45:45;;;;;;;0.30;0.30;;;8.00;99.90;;;;;;4410376;32;20073;-76
2021/04/12 09:48:44;;;;;;;3.37;0.62;;;8.10;99.90;;;;;;4413736;32;20384;-74
2021/04/12 09:51:34;;;;;;;0.40;0.40;;;8.10;99.90;;;;;;4408496;32;20069;-73
2021/04/12 09:54:27;;;;;;;0.32;0.32;;;8.00;99.90;;;;;;4409212;32;20101;-74
2021/04/12 09:57:32;;;;;;;0.30;0.30;;;8.20;99.90;;;;;;4419659;32;20053;-73
2021/04/12 10:00:37;;;;;;;0.57;0.57;;;8.30;99.90;;;;;;4396029;32;20559;-73
2021/04/12 10:03:20;;;;;;;0.40;0.40;;;8.10;99.90;;;;;;4404817;32;20062;-73
2021/04/12 10:06:11;;;;;;;1.55;0.73;;;8.00;99.90;;;;;;4408161;32;20550;-73
2021/04/12 10:08:46;;;;;;;0.40;0.40;;;8.10;99.90;;;;;;4409297;32;20062;-72
2021/04/12 10:11:18;;;;;;;0.50;0.50;;;8.40;99.90;;;;;;4415624;32;20073;-74
2021/04/12 10:13:52;;;;;;;0.30;0.30;;;8.20;99.90;;;;;;4420928;32;20062;-75
2021/04/12 10:16:22;;;;;;;0.30;0.30;;;8.10;99.90;;;;;;4422937;32;20093;-74
2021/04/12 10:19:02;;;;;;;0.40;0.40;;;8.10;99.90;;;;;;4424126;32;20106;-75
2021/04/12 10:21:55;;;;;;;0.35;0.35;;;8.00;99.90;;;;;;4424373;32;20833;-74
2021/04/12 10:24:29;;;;;;;2.15;1.10;;;7.90;99.90;;;;;;4409789;32;20061;-75
2021/04/12 10:27:27;;;;;;;0.32;0.32;;;7.90;99.90;;;;;;4420690;32;20089;-73
2021/04/12 10:30:01;;;;;;;0.30;0.30;;;8.10;99.90;;;;;;4413415;32;20084;-75
2021/04/12 10:32:32;;;;;;;0.40;0.40;;;8.00;99.90;;;;;;4428273;32;20580;-74
2021/04/12 10:35:04;;;;;;;0.30;0.30;;;8.10;99.90;;;;;;4427832;32;20069;-75
2021/04/12 10:37:57;;;;;;;0.30;0.30;;;8.00;99.90;;;;;;4427932;32;20097;-74
2021/04/12 10:40:31;;;;;;;0.30;0.30;;;8.00;99.90;;;;;;4416721;32;20116;-73
2021/04/12 10:43:25;;;;;;;0.30;0.30;;;7.90;99.90;;;;;;4413746;32;20090;-75
2021/04/12 10:46:02;;;;;;;0.45;0.45;;;8.00;99.90;;;;;;4413523;32;20057;-77
2021/04/12 10:48:34;;;;;;;22.87;0.65;;;8.10;99.90;;;;;;4420591;32;20116;-75
2021/04/12 10:51:12;;;;;;;0.28;0.28;;;8.10;99.90;;;;;;4421157;32;20649;-73
2021/04/12 10:54:17;;;;;;;0.30;0.30;;;8.10;99.90;;;;;;4420554;32;20158;-74
2021/04/12 10:56:50;;;;;;;0.52;0.52;;;8.20;99.90;;;;;;4401422;32;20062;-74
2021/04/12 10:59:44;;;;;;;0.62;0.50;;;8.40;99.90;;;;;;4422998;32;20121;-76
2021/04/12 11:02:49;;;;;;;0.30;0.30;;;8.40;99.90;;;;;;4414073;32;20469;-75
2021/04/12 11:05:18;;;;;;;0.52;0.50;;;8.50;99.90;;;;;;4401676;32;20094;-76
2021/04/12 11:07:53;;;;;;;0.30;0.30;;;8.40;99.90;;;;;;4422023;32;20070;-76
2021/04/12 11:10:55;;;;;;;0.50;0.50;;;8.40;99.90;;;;;;4424406;32;20078;-75
2021/04/12 11:13:34;;;;;;;0.45;0.45;;;8.40;99.90;;;;;;4408005;32;20089;-75
2021/04/12 11:16:28;;;;;;;0.35;0.35;;;8.40;99.90;;;;;;4423342;32;20177;-74
2021/04/12 11:19:24;;;;;;;0.52;0.52;;;8.50;99.90;;;;;;4401821;32;20081;-77
2021/04/12 11:22:09;;;;;;;0.30;0.30;;;8.40;99.90;;;;;;4411828;32;20085;-77
2021/04/12 11:25:02;;;;;;;0.37;0.37;;;8.50;99.90;;;;;;4422975;32;20455;-75
2021/04/12 11:28:08;;;;;;;0.45;0.45;;;8.20;99.90;;;;;;4395785;32;20098;-76
2021/04/12 11:30:57;;;;;;;0.30;0.30;;;8.30;99.90;;;;;;4404913;32;20469;-77
2021/04/12 11:33:45;;;;;;;0.40;0.40;;;8.50;99.90;;;;;;4418528;32;20276;-76
2021/04/12 11:36:34;;;;;;;1.10;1.00;;;8.70;99.90;;;;;;4408858;32;20125;-77
2021/04/12 11:39:19;;;;;;;0.40;0.40;;;8.60;99.90;;;;;;4409117;32;20069;-75
2021/04/12 11:41:59;;;;;;;0.30;0.30;;;8.50;99.90;;;;;;4420919;32;20427;-77
2021/04/12 11:44:36;;;;;;;0.50;0.50;;;8.50;99.90;;;;;;4419856;32;20142;-76
2021/04/12 11:47:13;;;;;;;0.30;0.30;;;8.60;99.90;;;;;;4419214;32;20055;-74
2021/04/12 11:50:04;;;;;;;0.30;0.30;;;8.50;99.90;;;;;;4423202;32;20318;-74
2021/04/12 11:52:55;;;;;;;0.50;0.50;;;8.40;99.90;;;;;;4418120;32;20488;-74
2021/04/12 11:55:48;;;;;;;0.40;0.40;;;8.20;99.90;;;;;;4408802;32;20062;-75
2021/04/12 11:58:25;;;;;;;0.88;0.45;;;8.30;99.90;;;;;;4405151;32;20133;-75
2021/04/12 12:01:12;;;;;;;0.30;0.30;;;8.40;99.90;;;;;;4421857;32;20065;-75
2021/04/12 12:04:02;;;;;;;0.30;0.30;;;8.40;99.90;;;;;;4410210;32;20564;-75
2021/04/12 12:06:42;;;;;;;0.62;0.62;;;8.40;99.90;;;;;;4405458;32;20069;-75
2021/04/12 12:09:32;;;;;;;1.33;0.90;;;8.60;99.90;;;;;;4423078;32;20097;-75
2021/04/12 12:12:07;;;;;;;0.52;0.47;;;9.00;99.90;;;;;;4413030;32;20072;-75
2021/04/12 12:14:40;;;;;;;0.35;0.35;;;9.60;99.90;;;;;;4420842;32;20073;-75
2021/04/12 12:17:25;;;;;;;0.20;0.20;;;10.00;99.90;;;;;;4414970;32;20412;-75
2021/04/12 12:19:57;;;;;;;0.30;0.30;;;10.40;99.90;;;;;;4417999;32;20116;-75
2021/04/12 12:22:57;;;;;;;0.40;0.40;;;10.10;99.90;;;;;;4420412;32;20195;-74
2021/04/12 12:25:42;;;;;;;0.40;0.40;;;9.80;99.90;;;;;;4408065;32;20119;-74
2021/04/12 12:28:24;;;;;;;0.30;0.30;;;9.70;99.90;;;;;;4422555;32;20409;-75
2021/04/12 12:31:05;;;;;;;0.22;0.22;;;9.60;99.90;;;;;;4421752;32;20065;-76
2021/04/12 12:33:38;;;;;;;0.50;0.50;;;9.90;99.90;;;;;;4420365;32;20082;-76
2021/04/12 12:36:12;;;;;;;0.30;0.30;;;10.10;99.90;;;;;;4421408;32;20082;-74
2021/04/12 12:39:02;;;;;;;0.25;0.25;;;10.20;99.60;;;;;;4422760;32;20077;-76
2021/04/12 12:41:34;;;;;;;1.45;0.65;;;10.00;99.90;;;;;;4411782;32;20088;-75
2021/04/12 12:44:06;;;;;;;0.32;0.32;;;9.80;99.90;;;;;;4423688;32;20169;-76
2021/04/12 12:46:34;;;;;;;0.20;0.20;;;9.80;99.90;;;;;;4420652;32;20129;-76
2021/04/12 12:49:21;;;;;;;0.25;0.25;;;10.00;99.90;;;;;;4420518;32;20062;-76
2021/04/12 12:51:52;;;;;;;0.30;0.30;;;9.90;99.10;;;;;;4414313;32;20081;-75
2021/04/12 12:54:23;;;;;;;0.30;0.30;;;9.50;99.70;;;;;;4421003;32;20419;-76
2021/04/12 12:56:51;;;;;;;0.30;0.30;;;9.50;99.90;;;;;;4423470;32;20090;-76
2021/04/12 12:59:38;;;;;;;1.65;0.55;;;9.60;99.90;;;;;;4416031;32;20065;-76
2021/04/12 13:02:21;;;;;;;0.30;0.30;;;9.60;99.90;;;;;;4409925;32;20065;-75
2021/04/12 13:04:57;;;;;;;0.55;0.55;;;9.50;99.90;;;;;;4417989;32;20482;-76
2021/04/12 13:07:24;;;;;;;0.45;0.35;;;9.60;98.80;;;;;;4421806;32;20077;-75
2021/04/12 13:09:57;;;;;;;0.95;0.93;;;9.40;99.90;;;;;;4418119;32;20050;-76
2021/04/12 13:12:30;;;;;;;0.32;0.32;;;9.30;99.80;;;;;;4423962;32;20061;-76
2021/04/12 13:15:27;;;;;;;0.30;0.30;;;9.20;99.90;;;;;;4423149;32;20062;-76
2021/04/12 13:18:02;;;;;;;0.25;0.25;;;9.20;99.90;;;;;;4408819;32;20405;-75
2021/04/12 13:20:41;;;;;;;0.37;0.37;;;9.30;99.90;;;;;;4425710;32;20053;-76
2021/04/12 13:23:15;;;;;;;0.40;0.40;;;9.30;98.80;;;;;;4424539;32;20061;-76
2021/04/12 13:25:46;;;;;;;0.30;0.30;;;9.50;99.90;;;;;;4422098;32;20057;-76
2021/04/12 13:28:25;;;;;;;0.40;0.40;;;9.60;98.50;;;;;;4422971;32;20136;-76
2021/04/12 13:31:12;;;;;;;0.30;0.30;;;9.70;98.90;;;;;;4421898;32;20086;-76
2021/04/12 13:34:00;;;;;;;0.37;0.37;;;9.70;98.20;;;;;;4415263;32;20057;-75
2021/04/12 13:36:39;;;;;;;0.35;0.35;;;9.90;97.60;;;;;;4422349;32;20419;-76
2021/04/12 13:39:13;;;;;;;1.55;0.95;;;9.80;98.10;;;;;;4425403;32;20081;-76
2021/04/12 13:41:47;;;;;;;0.20;0.20;;;9.80;98.00;;;;;;4426396;32;20090;-76
2021/04/12 13:44:18;;;;;;;0.30;0.30;;;9.80;96.70;;;;;;4416965;32;20133;-76
2021/04/12 13:47:05;;;;;;;0.30;0.30;;;9.70;97.40;;;;;;4421302;32;20128;-76
2021/04/12 13:49:41;;;;;;;0.30;0.30;;;9.60;97.90;;;;;;4415997;32;20069;-76
2021/04/12 13:52:13;;;;;;;0.30;0.30;;;9.80;98.40;;;;;;4422127;32;20370;-75
2021/04/12 13:54:58;;;;;;;0.30;0.30;;;9.90;98.30;;;;;;4421542;32;20096;-76
2021/04/12 13:57:46;;;;;;;0.40;0.40;;;9.80;97.60;;;;;;4420972;32;20065;-75
2021/04/12 14:00:24;;;;;;;0.30;0.30;;;9.80;97.10;;;;;;4410672;32;20510;-76
2021/04/12 14:02:56;;;;;;;0.30;0.30;;;9.80;97.20;;;;;;4420049;32;20512;-76
2021/04/12 14:05:26;;;;;;;0.30;0.30;;;10.10;96.10;;;;;;4422736;32;20055;-75
2021/04/12 14:07:58;;;;;;;0.30;0.30;;;9.90;95.70;;;;;;4415674;32;20074;-75
2021/04/12 14:10:29;;;;;;;0.32;0.32;;;9.60;96.10;;;;;;4419937;32;20748;-75
2021/04/12 14:13:12;;;;;;;0.35;0.35;;;9.50;96.80;;;;;;4426659;32;20078;-75
2021/04/12 14:15:49;;;;;;;0.22;0.22;;;9.70;96.60;;;;;;4427398;32;20073;-75
2021/04/12 14:18:31;;;;;;;2.95;0.50;;;9.80;95.30;;;;;;4426386;32;20089;-75
2021/04/12 14:21:05;;;;;;;0.52;0.40;;;10.00;95.80;;;;;;4426390;32;20073;-75
2021/04/12 14:23:37;;;;;;;0.40;0.40;;;10.10;94.40;;;;;;4423413;32;20073;-75
2021/04/12 14:26:11;;;;;;;0.40;0.40;;;10.00;93.50;;;;;;4428003;32;20070;-75
2021/04/12 14:28:43;;;;;;;0.30;0.30;;;10.10;93.60;;;;;;4428708;32;20116;-75
2021/04/12 14:31:20;;;;;;;0.20;0.20;;;10.10;92.70;;;;;;4424966;32;20502;-75
2021/04/12 14:33:47;;;;;;;0.30;0.30;;;10.00;93.10;;;;;;4402760;32;20589;-75
2021/04/12 14:36:20;;;;;;;3.40;0.85;;;10.00;92.40;;;;;;4425643;32;20061;-75
2021/04/12 14:38:48;;;;;;;24.02;1.42;;;10.00;92.40;;;;;;4428982;32;20104;-75
2021/04/12 14:41:23;;;;;;;0.30;0.30;;;10.00;92.70;;;;;;4423733;32;20078;-75
2021/04/12 14:44:09;;;;;;;0.65;0.65;;;10.00;93.20;;;;;;4427742;32;20532;-75